Skip to main content.
Our real time weather data display below is updated continuously via our 24/7 live data feed.
 TIME   TEMPERATURE   WINDSPEED   DIRECTION   HUMIDITY   BAROMETER   RAINFALL 
4:50 22.0°C (71.6°F) 20.4 kmh (12.7 mph) NW 78% 1011.9hPa (29.88 inHg) 0.0mm (0.00 in.)
3:50 22.0°C (71.6 °F) 25.9 kmh (16.1 mph) NW 78% 1011.9hPa (29.88 inHg) 0.0mm (0.00 in.)
2:50 22.0°C (71.6 °F) 31.5 kmh (19.6 mph) NW 78% 1012.9hPa (29.91 inHg) 0.0mm (0.00 in.)
1:50 22.0°C (71.6 °F) 33.3 kmh (20.7 mph) NW 83% 1012.9hPa (29.91 inHg) 0.0mm (0.00 in.)
0:50 22.0°C (71.6 °F) 37.0 kmh (23.0 mph) NW 83% 1012.9hPa (29.91 inHg) 0.0mm (0.00 in.)
23:50 23.0°C (73.4 °F) 42.6 kmh (26.5 mph) NW 78% 1012.9hPa (29.91 inHg) 0.0mm (0.00 in.)
22:50 23.0°C (73.4 °F) 37.0 kmh (23.0 mph) NW 78% 1012.9hPa (29.91 inHg) 0.0mm (0.00 in.)
21:50 23.0°C (73.4 °F) 40.7 kmh (25.3 mph) WNW 78% 1012.9hPa (29.91 inHg) 0.0mm (0.00 in.)
20:50 24.0°C (75.2 °F) 40.7 kmh (25.3 mph) NW 78% 1012.9hPa (29.91 inHg) 0.0mm (0.00 in.)
19:43 26.0°C (78.8 °F) 35.2 kmh (21.9 mph) NW 69% 1012.9hPa (29.91 inHg) 0.0mm (0.00 in.)
18:43 27.0°C (80.6 °F) 40.7 kmh (25.3 mph) NW 69% 1011.9hPa (29.88 inHg) 0.0mm (0.00 in.)
17:43 28.0°C (82.4 °F) 33.3 kmh (20.7 mph) WNW 61% 1012.9hPa (29.91 inHg) 0.0mm (0.00 in.)
16:43 29.0°C (84.2 °F) 29.6 kmh (18.4 mph) NW 62% 1012.9hPa (29.91 inHg) 0.0mm (0.00 in.)
15:43 29.0°C (84.2 °F) 29.6 kmh (18.4 mph) NW 62% 1012.9hPa (29.91 inHg) 0.0mm (0.00 in.)
14:43 30.0°C (86.0 °F) 29.6 kmh (18.4 mph) NW 58% 1013.9hPa (29.94 inHg) 0.0mm (0.00 in.)
13:43 31.0°C (87.8 °F) 22.2 kmh (13.8 mph) NW 48% 1013.9hPa (29.94 inHg) 0.0mm (0.00 in.)
12:43 30.0°C (86.0 °F) 22.2 kmh (13.8 mph) NNW 55% 1013.9hPa (29.94 inHg) 0.0mm (0.00 in.)
11:43 29.0°C (84.2 °F) 20.4 kmh (12.7 mph) NW 62% 1013.9hPa (29.94 inHg) 0.0mm (0.00 in.)
10:43 30.0°C (86.0 °F) 13.0 kmh (8.1 mph) NNW 58% 1012.9hPa (29.91 inHg) 0.0mm (0.00 in.)
9:43 29.0°C (84.2 °F) 9.3 kmh (5.8 mph) N 54% 1012.9hPa (29.91 inHg) 0.0mm (0.00 in.)
8:43 27.0°C (80.6 °F) 7.4 kmh (4.6 mph) WNW 74% 1012.9hPa (29.91 inHg) 0.0mm (0.00 in.)
7:43 24.0°C (75.2 °F) 5.6 kmh (3.5 mph) W 88% 1012.9hPa (29.91 inHg) 0.0mm (0.00 in.)
6:43 24.0°C (75.2 °F) 9.3 kmh (5.8 mph) NNE 88% 1011.9hPa (29.88 inHg) 0.0mm (0.00 in.)
5:43 24.0°C (75.2 °F) 16.7 kmh (10.4 mph) NNE 88% 1011.9hPa (29.88 inHg) 0.0mm (0.00 in.)